createdAt,value
2017-04-03T00:01:00.414Z,46.70
2017-04-03T00:02:00.984Z,46.70
2017-04-03T00:03:01.559Z,46.51
2017-04-03T00:04:02.131Z,46.51
2017-04-03T00:05:02.711Z,46.41
2017-04-03T00:06:03.293Z,46.51
2017-04-03T00:07:04.068Z,46.41
2017-04-03T00:08:04.642Z,46.80
2017-04-03T00:09:05.214Z,46.51
2017-04-03T00:10:05.790Z,46.51
2017-04-03T00:11:06.368Z,46.22
2017-04-03T00:12:06.939Z,46.31
2017-04-03T00:13:07.512Z,46.22
2017-04-03T00:14:08.086Z,46.22
2017-04-03T00:15:08.661Z,46.61
2017-04-03T00:16:09.234Z,46.51
2017-04-03T00:17:09.822Z,46.51
2017-04-03T00:18:10.394Z,46.51
2017-04-03T00:19:10.966Z,46.41
2017-04-03T00:20:11.536Z,46.31
2017-04-03T00:21:12.109Z,46.41
2017-04-03T00:22:12.887Z,46.22
2017-04-03T00:23:13.457Z,46.22
2017-04-03T00:24:14.031Z,46.22
2017-04-03T00:25:14.605Z,46.03
2017-04-03T00:26:15.180Z,46.22
2017-04-03T00:27:15.754Z,46.41
2017-04-03T00:28:16.331Z,46.31
2017-04-03T00:29:16.900Z,46.20
2017-04-03T00:30:17.473Z,46.39
2017-04-03T00:31:18.050Z,46.41
2017-04-03T00:32:18.620Z,46.61
2017-04-03T00:33:19.193Z,46.51
2017-04-03T00:34:19.765Z,46.48
2017-04-03T00:35:20.339Z,45.94
2017-04-03T00:36:20.912Z,46.61
2017-04-03T00:37:21.686Z,46.61
2017-04-03T00:38:22.260Z,46.12
2017-04-03T00:39:22.833Z,46.12
2017-04-03T00:40:23.409Z,46.20
2017-04-03T00:41:23.980Z,46.03
2017-04-03T00:42:24.555Z,46.12
2017-04-03T00:43:25.129Z,46.22
2017-04-03T00:44:25.701Z,46.31
2017-04-03T00:45:26.274Z,46.31
2017-04-03T00:46:26.847Z,46.12
2017-04-03T00:47:27.419Z,46.03
2017-04-03T00:48:27.992Z,46.03
2017-04-03T00:49:28.567Z,45.91
2017-04-03T00:50:29.142Z,46.01
2017-04-03T00:51:29.733Z,46.20
2017-04-03T00:52:30.507Z,46.10
2017-04-03T00:53:31.081Z,46.10
2017-04-03T00:54:31.654Z,46.10
2017-04-03T00:55:32.228Z,46.10
2017-04-03T00:56:32.801Z,46.01
2017-04-03T00:57:33.375Z,46.10
2017-04-03T00:58:33.950Z,46.01
2017-04-03T00:59:34.524Z,46.20
2017-04-03T01:00:35.097Z,46.10
2017-04-03T01:01:35.673Z,46.20
2017-04-03T01:02:36.246Z,46.10
2017-04-03T01:03:36.820Z,46.10
2017-04-03T01:04:37.394Z,46.01
2017-04-03T01:05:37.967Z,45.91
2017-04-03T01:06:38.543Z,45.91
2017-04-03T01:07:39.132Z,46.10
2017-04-03T01:08:39.705Z,46.10
2017-04-03T01:09:40.281Z,46.01
2017-04-03T01:10:40.852Z,46.01
2017-04-03T01:11:41.424Z,45.81
2017-04-03T01:12:41.998Z,46.20
2017-04-03T01:13:42.569Z,45.91
2017-04-03T01:14:43.144Z,46.10
2017-04-03T01:15:43.716Z,46.10
2017-04-03T01:16:44.287Z,46.10
2017-04-03T01:17:44.861Z,45.91
2017-04-03T01:18:45.434Z,46.10
2017-04-03T01:19:46.009Z,46.01
2017-04-03T01:20:46.582Z,46.10
2017-04-03T01:21:47.153Z,46.01
2017-04-03T01:22:47.926Z,46.10
2017-04-03T01:23:48.500Z,46.01
2017-04-03T01:24:49.076Z,46.01
2017-04-03T01:25:49.645Z,46.10
2017-04-03T01:26:50.233Z,46.01
2017-04-03T01:27:50.803Z,46.10
2017-04-03T01:28:51.377Z,46.20
2017-04-03T01:29:51.950Z,46.30
2017-04-03T01:30:52.538Z,46.10
2017-04-03T01:31:53.111Z,46.20
2017-04-03T01:32:53.684Z,46.01
2017-04-03T01:33:54.257Z,46.27
2017-04-03T01:34:54.828Z,45.79
2017-04-03T01:35:55.403Z,45.98
2017-04-03T01:36:55.973Z,45.98
2017-04-03T01:37:56.760Z,45.98
2017-04-03T01:38:57.331Z,46.27
2017-04-03T01:39:57.904Z,46.17
2017-04-03T01:40:58.476Z,46.46
2017-04-03T01:41:59.048Z,46.66
2017-04-03T01:42:59.623Z,46.46
2017-04-03T01:44:00.193Z,46.46
2017-04-03T01:45:00.766Z,46.27
2017-04-03T01:46:01.339Z,46.37
2017-04-03T01:47:01.911Z,46.17
2017-04-03T01:48:02.486Z,46.27
2017-04-03T01:49:03.074Z,46.08
2017-04-03T01:50:03.645Z,46.08
2017-04-03T01:51:04.218Z,46.17
2017-04-03T01:52:04.791Z,46.08
2017-04-03T01:53:05.579Z,45.89
2017-04-03T01:54:06.153Z,45.79
2017-04-03T01:55:06.725Z,45.79
2017-04-03T01:56:07.299Z,45.89
2017-04-03T01:57:07.871Z,45.98
2017-04-03T01:58:08.443Z,46.17
2017-04-03T01:59:09.014Z,46.08
2017-04-03T02:00:09.587Z,45.89
2017-04-03T02:01:10.161Z,45.89
2017-04-03T02:02:10.732Z,45.89
2017-04-03T02:03:11.305Z,45.89
2017-04-03T02:04:11.878Z,45.89
2017-04-03T02:05:12.448Z,45.79
2017-04-03T02:06:13.034Z,46.17
2017-04-03T02:07:13.607Z,46.17
2017-04-03T02:08:14.385Z,46.17
2017-04-03T02:09:14.952Z,45.98
2017-04-03T02:10:15.524Z,46.08
2017-04-03T02:11:16.098Z,46.08
2017-04-03T02:12:16.671Z,45.98
2017-04-03T02:13:17.244Z,46.27
2017-04-03T02:14:17.817Z,46.27
2017-04-03T02:15:18.388Z,46.08
2017-04-03T02:16:18.959Z,46.17
2017-04-03T02:17:19.532Z,46.17
2017-04-03T02:18:20.106Z,45.79
2017-04-03T02:19:20.677Z,46.08
2017-04-03T02:20:21.250Z,46.08
2017-04-03T02:21:21.838Z,46.17
2017-04-03T02:22:22.409Z,45.79
2017-04-03T02:23:23.181Z,46.08
2017-04-03T02:24:23.753Z,46.17
2017-04-03T02:25:24.326Z,46.17
2017-04-03T02:26:24.897Z,45.89
2017-04-03T02:27:25.468Z,45.98
2017-04-03T02:28:26.055Z,46.17
2017-04-03T02:29:26.629Z,45.98
2017-04-03T02:30:27.199Z,46.27
2017-04-03T02:31:27.778Z,46.08
2017-04-03T02:32:28.343Z,46.08
2017-04-03T02:33:28.916Z,46.08
2017-04-03T02:34:29.486Z,46.08
2017-04-03T02:35:30.058Z,45.89
2017-04-03T02:36:30.630Z,46.08
2017-04-03T02:37:31.203Z,46.25
2017-04-03T02:38:31.976Z,46.08
2017-04-03T02:39:32.548Z,45.77
2017-04-03T02:40:33.120Z,45.77
2017-04-03T02:41:33.693Z,46.15
2017-04-03T02:42:34.266Z,45.87
2017-04-03T02:43:34.839Z,45.96
2017-04-03T02:44:35.409Z,45.87
2017-04-03T02:45:35.981Z,46.06
2017-04-03T02:46:36.570Z,45.98
2017-04-03T02:47:37.142Z,46.27
2017-04-03T02:48:37.714Z,45.96
2017-04-03T02:49:38.286Z,46.06
2017-04-03T02:50:38.858Z,45.87
2017-04-03T02:51:39.430Z,45.96
2017-04-03T02:52:40.001Z,45.96
2017-04-03T02:53:40.775Z,45.96
2017-04-03T02:54:41.347Z,45.87
2017-04-03T02:55:41.919Z,45.77
2017-04-03T02:56:42.492Z,46.15
2017-04-03T02:57:43.066Z,46.06
2017-04-03T02:58:43.637Z,45.96
2017-04-03T02:59:44.210Z,45.96
2017-04-03T03:00:44.782Z,46.06
2017-04-03T03:01:45.353Z,46.15
2017-04-03T03:02:45.927Z,46.06
2017-04-03T03:03:46.499Z,45.96
2017-04-03T03:04:47.072Z,46.15
2017-04-03T03:05:47.644Z,45.96
2017-04-03T03:06:48.216Z,45.96
2017-04-03T03:07:48.789Z,46.06
2017-04-03T03:08:49.578Z,46.15
2017-04-03T03:09:50.150Z,46.15
2017-04-03T03:10:50.722Z,46.25
2017-04-03T03:11:51.298Z,45.96
2017-04-03T03:12:51.867Z,45.96
2017-04-03T03:13:52.438Z,46.06
2017-04-03T03:14:53.013Z,46.06
2017-04-03T03:15:53.583Z,46.06
2017-04-03T03:16:54.155Z,46.06
2017-04-03T03:17:54.728Z,45.96
2017-04-03T03:18:55.303Z,46.06
2017-04-03T03:19:55.875Z,46.06
2017-04-03T03:20:56.446Z,46.06
2017-04-03T03:21:57.017Z,46.34
2017-04-03T03:22:57.595Z,46.25
2017-04-03T03:23:58.164Z,45.87
2017-04-03T03:24:58.736Z,46.15
2017-04-03T03:25:59.308Z,45.96
2017-04-03T03:26:59.880Z,45.96
2017-04-03T03:28:00.453Z,45.96
2017-04-03T03:29:01.026Z,46.06
2017-04-03T03:30:01.599Z,46.06
2017-04-03T03:31:02.170Z,46.06
2017-04-03T03:32:02.758Z,45.87
2017-04-03T03:33:03.329Z,46.06
2017-04-03T03:34:03.901Z,45.77
2017-04-03T03:35:04.473Z,45.77
2017-04-03T03:36:05.046Z,46.15
2017-04-03T03:37:05.619Z,46.06
2017-04-03T03:38:06.191Z,46.15
2017-04-03T03:39:06.774Z,45.96
2017-04-03T03:40:07.349Z,46.06
2017-04-03T03:41:07.920Z,46.15
2017-04-03T03:42:08.493Z,45.96
2017-04-03T03:43:09.065Z,45.96
2017-04-03T03:44:09.841Z,45.87
2017-04-03T03:45:10.410Z,45.96
2017-04-03T03:46:10.984Z,46.34
2017-04-03T03:47:11.556Z,46.25
2017-04-03T03:48:12.129Z,46.34
2017-04-03T03:49:12.701Z,46.34
2017-04-03T03:50:13.273Z,46.34
2017-04-03T03:51:13.846Z,46.25
2017-04-03T03:52:14.416Z,45.87
2017-04-03T03:53:15.004Z,45.96
2017-04-03T03:54:15.578Z,45.96
2017-04-03T03:55:16.150Z,45.67
2017-04-03T03:56:16.721Z,45.60
2017-04-03T03:57:17.308Z,45.51
2017-04-03T03:58:17.879Z,45.70
2017-04-03T03:59:18.451Z,45.67
2017-04-03T04:00:19.038Z,45.58
2017-04-03T04:01:19.611Z,45.67
2017-04-03T04:02:20.184Z,45.70
2017-04-03T04:03:20.756Z,45.70
2017-04-03T04:04:21.328Z,45.31
2017-04-03T04:05:21.916Z,45.41
2017-04-03T04:06:22.488Z,45.51
2017-04-03T04:07:23.059Z,45.60
2017-04-03T04:08:23.632Z,45.51
2017-04-03T04:09:24.205Z,45.48
2017-04-03T04:10:24.777Z,45.22
2017-04-03T04:11:25.350Z,45.60
2017-04-03T04:12:25.936Z,45.67
2017-04-03T04:13:26.508Z,45.58
2017-04-03T04:14:27.079Z,45.58
2017-04-03T04:15:27.654Z,45.48
2017-04-03T04:16:28.226Z,45.58
2017-04-03T04:17:28.800Z,45.39
2017-04-03T04:18:29.371Z,45.39
2017-04-03T04:19:29.942Z,45.39
2017-04-03T04:20:30.516Z,45.58
2017-04-03T04:21:31.088Z,45.39
2017-04-03T04:22:31.677Z,45.29
2017-04-03T04:23:32.250Z,45.48
2017-04-03T04:24:32.822Z,45.39
2017-04-03T04:25:33.392Z,45.39
2017-04-03T04:26:33.963Z,45.29
2017-04-03T04:27:34.536Z,45.77
2017-04-03T04:28:35.108Z,45.29
2017-04-03T04:29:35.881Z,45.48
2017-04-03T04:30:36.466Z,45.58
2017-04-03T04:31:37.037Z,45.67
2017-04-03T04:32:37.610Z,45.67
2017-04-03T04:33:38.184Z,45.67
2017-04-03T04:34:38.756Z,45.56
2017-04-03T04:35:39.329Z,45.75
2017-04-03T04:36:39.898Z,45.56
2017-04-03T04:37:40.470Z,46.22
2017-04-03T04:38:41.042Z,46.13
2017-04-03T04:39:41.615Z,46.13
2017-04-03T04:40:42.188Z,45.94
2017-04-03T04:41:42.759Z,46.03
2017-04-03T04:42:43.330Z,45.84
2017-04-03T04:43:43.903Z,45.94
2017-04-03T04:44:44.692Z,46.13
2017-04-03T04:45:45.264Z,46.13
2017-04-03T04:46:45.836Z,46.03
2017-04-03T04:47:46.406Z,46.03
2017-04-03T04:48:46.980Z,46.13
2017-04-03T04:49:47.553Z,45.84
2017-04-03T04:50:48.123Z,45.94
2017-04-03T04:51:48.696Z,46.03
2017-04-03T04:52:49.267Z,46.03
2017-04-03T04:53:49.842Z,45.94
2017-04-03T04:54:50.419Z,46.32
2017-04-03T04:55:50.988Z,46.03
2017-04-03T04:56:51.559Z,46.03
2017-04-03T04:57:52.132Z,46.22
2017-04-03T04:58:52.705Z,46.32
2017-04-03T04:59:53.478Z,46.22
2017-04-03T05:00:54.051Z,46.22
2017-04-03T05:01:54.623Z,46.32
2017-04-03T05:02:55.196Z,46.22
2017-04-03T05:03:55.770Z,46.22
2017-04-03T05:04:56.341Z,45.94
2017-04-03T05:05:56.917Z,46.22
2017-04-03T05:06:57.504Z,45.94
2017-04-03T05:07:58.077Z,46.03
2017-04-03T05:08:58.653Z,46.03
2017-04-03T05:09:59.423Z,45.46
2017-04-03T05:10:59.996Z,45.65
2017-04-03T05:12:00.567Z,45.56
2017-04-03T05:13:01.139Z,45.65
2017-04-03T05:14:01.713Z,45.65
2017-04-03T05:15:02.283Z,45.75
2017-04-03T05:16:02.855Z,45.75
2017-04-03T05:17:03.426Z,45.56
2017-04-03T05:18:03.999Z,45.27
2017-04-03T05:19:04.586Z,45.46
2017-04-03T05:20:05.161Z,45.56
2017-04-03T05:21:05.750Z,45.58
2017-04-03T05:22:06.323Z,45.39
2017-04-03T05:23:06.897Z,45.56
2017-04-03T05:24:07.471Z,45.56
2017-04-03T05:25:08.260Z,45.56
2017-04-03T05:26:08.834Z,45.56
2017-04-03T05:27:09.407Z,45.65
2017-04-03T05:28:09.984Z,45.46
2017-04-03T05:29:10.556Z,45.56
2017-04-03T05:30:11.169Z,45.56
2017-04-03T05:31:11.704Z,45.56
2017-04-03T05:32:12.281Z,45.67
2017-04-03T05:33:12.872Z,45.65
2017-04-03T05:34:13.445Z,45.67
2017-04-03T05:35:14.021Z,45.67
2017-04-03T05:36:14.612Z,45.39
2017-04-03T05:37:15.189Z,45.48
2017-04-03T05:38:15.762Z,45.67
2017-04-03T05:39:16.337Z,45.39
2017-04-03T05:40:17.112Z,45.10
2017-04-03T05:41:17.688Z,45.01
2017-04-03T05:42:18.263Z,45.01
2017-04-03T05:43:18.838Z,45.20
2017-04-03T05:44:19.413Z,44.81
2017-04-03T05:45:19.989Z,45.01
2017-04-03T05:46:20.562Z,45.01
2017-04-03T05:47:21.138Z,45.39
2017-04-03T05:48:21.728Z,44.91
2017-04-03T05:49:22.304Z,45.29
2017-04-03T05:50:22.879Z,45.48
2017-04-03T05:51:23.470Z,44.91
2017-04-03T05:52:24.044Z,45.10
2017-04-03T05:53:24.621Z,44.72
2017-04-03T05:54:25.195Z,44.91
2017-04-03T05:55:25.970Z,44.81
2017-04-03T05:56:26.545Z,44.81
2017-04-03T05:57:27.119Z,44.91
2017-04-03T05:58:27.695Z,44.81
2017-04-03T05:59:28.268Z,44.81
2017-04-03T06:00:28.845Z,44.72
2017-04-03T06:01:29.421Z,44.72
2017-04-03T06:02:29.996Z,44.72
2017-04-03T06:03:30.569Z,44.81
2017-04-03T06:04:31.145Z,44.81
2017-04-03T06:05:31.921Z,44.91
2017-04-03T06:06:32.494Z,44.72
2017-04-03T06:07:33.070Z,45.20
2017-04-03T06:08:33.645Z,44.62
2017-04-03T06:09:34.221Z,44.72
2017-04-03T06:10:34.797Z,44.72
2017-04-03T06:11:35.371Z,44.81
2017-04-03T06:12:35.945Z,44.72
2017-04-03T06:13:36.521Z,44.72
2017-04-03T06:14:37.096Z,44.91
2017-04-03T06:15:37.887Z,44.91
2017-04-03T06:16:38.465Z,44.81
2017-04-03T06:17:39.037Z,44.72
2017-04-03T06:18:39.612Z,44.81
2017-04-03T06:19:40.187Z,45.01
2017-04-03T06:20:40.762Z,45.10
2017-04-03T06:21:41.336Z,44.53
2017-04-03T06:22:41.913Z,44.72
2017-04-03T06:23:42.487Z,44.81
2017-04-03T06:24:43.061Z,44.55
2017-04-03T06:25:43.842Z,44.62
2017-04-03T06:26:44.414Z,44.53
2017-04-03T06:27:45.003Z,44.43
2017-04-03T06:28:45.581Z,44.36
2017-04-03T06:29:46.157Z,44.36
2017-04-03T06:30:46.746Z,43.98
2017-04-03T06:31:47.323Z,44.26
2017-04-03T06:32:47.901Z,44.24
2017-04-03T06:33:48.476Z,43.98
2017-04-03T06:34:49.051Z,44.07
2017-04-03T06:35:49.629Z,44.34
2017-04-03T06:36:50.205Z,44.43
2017-04-03T06:37:50.781Z,44.43
2017-04-03T06:38:51.361Z,43.98
2017-04-03T06:39:51.946Z,43.98
2017-04-03T06:40:52.728Z,44.07
2017-04-03T06:41:53.301Z,43.95
2017-04-03T06:42:53.878Z,43.98
2017-04-03T06:43:54.453Z,44.26
2017-04-03T06:44:55.028Z,44.36
2017-04-03T06:45:55.606Z,44.17
2017-04-03T06:46:56.184Z,44.45
2017-04-03T06:47:56.757Z,44.26
2017-04-03T06:48:57.340Z,44.07
2017-04-03T06:49:57.911Z,44.07
2017-04-03T06:50:58.486Z,44.17
2017-04-03T06:51:59.061Z,43.40
2017-04-03T06:52:59.639Z,43.50
2017-04-03T06:54:00.215Z,43.50
2017-04-03T06:55:00.790Z,43.40
2017-04-03T06:56:01.566Z,43.50
2017-04-03T06:57:02.143Z,43.79
2017-04-03T06:58:02.719Z,43.50
2017-04-03T06:59:03.294Z,43.79
2017-04-03T07:00:03.871Z,43.59
2017-04-03T07:01:04.452Z,43.59
2017-04-03T07:02:05.023Z,43.50
2017-04-03T07:03:05.599Z,43.50
2017-04-03T07:04:06.175Z,43.40
2017-04-03T07:05:06.757Z,43.12
2017-04-03T07:06:07.329Z,43.40
2017-04-03T07:07:07.904Z,43.43
2017-04-03T07:08:08.482Z,43.14
2017-04-03T07:09:09.057Z,43.43
2017-04-03T07:10:09.633Z,43.33
2017-04-03T07:11:10.411Z,43.14
2017-04-03T07:12:10.987Z,43.04
2017-04-03T07:13:11.564Z,43.04
2017-04-03T07:14:12.155Z,43.23
2017-04-03T07:15:12.733Z,43.04
2017-04-03T07:16:13.308Z,43.04
2017-04-03T07:17:13.884Z,43.23
2017-04-03T07:18:14.462Z,43.23
2017-04-03T07:19:15.054Z,42.94
2017-04-03T07:20:15.646Z,42.66
2017-04-03T07:21:16.220Z,42.94
2017-04-03T07:22:16.798Z,42.56
2017-04-03T07:23:17.374Z,42.56
2017-04-03T07:24:17.966Z,42.85
2017-04-03T07:25:18.544Z,42.56
2017-04-03T07:26:19.119Z,42.37
2017-04-03T07:27:19.695Z,42.76
2017-04-03T07:28:20.274Z,42.76
2017-04-03T07:29:20.848Z,42.56
2017-04-03T07:30:21.424Z,42.47
2017-04-03T07:31:22.202Z,42.66
2017-04-03T07:32:22.779Z,42.56
2017-04-03T07:33:23.356Z,42.76
2017-04-03T07:34:23.933Z,42.47
2017-04-03T07:35:24.509Z,42.76
2017-04-03T07:36:25.086Z,42.37
2017-04-03T07:37:25.663Z,42.58
2017-04-03T07:38:26.237Z,42.49
2017-04-03T07:39:26.814Z,42.68
2017-04-03T07:40:27.405Z,42.97
2017-04-03T07:41:27.982Z,42.77
2017-04-03T07:42:28.559Z,42.11
2017-04-03T07:43:29.134Z,42.01
2017-04-03T07:44:29.711Z,42.11
2017-04-03T07:45:30.288Z,42.49
2017-04-03T07:46:31.069Z,42.49
2017-04-03T07:47:31.641Z,42.40
2017-04-03T07:48:32.218Z,42.40
2017-04-03T07:49:32.811Z,42.30
2017-04-03T07:50:33.386Z,42.11
2017-04-03T07:51:33.964Z,42.11
2017-04-03T07:52:34.539Z,42.20
2017-04-03T07:53:35.115Z,42.11
2017-04-03T07:54:35.705Z,42.01
2017-04-03T07:55:36.297Z,41.91
2017-04-03T07:56:36.874Z,42.01
2017-04-03T07:57:37.448Z,42.11
2017-04-03T07:58:38.026Z,41.91
2017-04-03T07:59:38.602Z,42.11
2017-04-03T08:00:39.177Z,42.01
2017-04-03T08:01:39.953Z,42.01
2017-04-03T08:02:40.533Z,42.01
2017-04-03T08:03:41.108Z,42.20
2017-04-03T08:04:41.688Z,42.03
2017-04-03T08:05:42.266Z,42.13
2017-04-03T08:06:42.840Z,42.22
2017-04-03T08:07:43.421Z,42.13
2017-04-03T08:08:43.995Z,42.22
2017-04-03T08:09:44.572Z,41.74
2017-04-03T08:10:45.151Z,41.55
2017-04-03T08:11:45.928Z,41.84
2017-04-03T08:12:46.505Z,41.46
2017-04-03T08:13:47.083Z,41.46
2017-04-03T08:14:47.663Z,41.55
2017-04-03T08:15:48.238Z,41.65
2017-04-03T08:16:48.814Z,41.46
2017-04-03T08:17:49.393Z,41.55
2017-04-03T08:18:49.969Z,41.74
2017-04-03T08:19:50.547Z,41.27
2017-04-03T08:20:51.124Z,41.27
2017-04-03T08:21:51.901Z,41.28
2017-04-03T08:22:52.477Z,41.36
2017-04-03T08:23:53.057Z,41.27
2017-04-03T08:24:53.634Z,41.28
2017-04-03T08:25:54.211Z,41.19
2017-04-03T08:26:54.789Z,41.19
2017-04-03T08:27:55.366Z,41.38
2017-04-03T08:28:55.944Z,41.19
2017-04-03T08:29:56.522Z,41.28
2017-04-03T08:30:57.101Z,41.38
2017-04-03T08:31:57.676Z,41.19
2017-04-03T08:32:58.254Z,41.09
2017-04-03T08:33:58.833Z,41.00
2017-04-03T08:34:59.409Z,40.81
2017-04-03T08:35:59.988Z,41.19
2017-04-03T08:37:00.774Z,41.00
2017-04-03T08:38:01.351Z,40.90
2017-04-03T08:39:01.929Z,41.21
2017-04-03T08:40:02.507Z,41.21
2017-04-03T08:41:03.084Z,40.73
2017-04-03T08:42:03.662Z,40.73
2017-04-03T08:43:04.239Z,40.16
2017-04-03T08:44:04.818Z,40.56
2017-04-03T08:45:05.394Z,40.27
2017-04-03T08:46:05.975Z,39.98
2017-04-03T08:47:06.552Z,40.08
2017-04-03T08:48:07.132Z,39.70
2017-04-03T08:49:07.708Z,39.79
2017-04-03T08:50:08.286Z,39.81
2017-04-03T08:51:08.866Z,39.72
2017-04-03T08:52:09.644Z,40.00
2017-04-03T08:53:10.225Z,39.43
2017-04-03T08:54:10.803Z,39.35
2017-04-03T08:55:11.381Z,39.35
2017-04-03T08:56:11.975Z,39.06
2017-04-03T08:57:12.555Z,38.68
2017-04-03T08:58:13.134Z,38.87
2017-04-03T08:59:13.713Z,38.78
2017-04-03T09:00:14.293Z,38.59
2017-04-03T09:01:14.872Z,38.68
2017-04-03T09:02:15.653Z,38.59
2017-04-03T09:03:16.233Z,38.78
2017-04-03T09:04:16.813Z,38.78
2017-04-03T09:05:17.390Z,38.59
2017-04-03T09:06:17.970Z,38.59
2017-04-03T09:07:18.548Z,38.39
2017-04-03T09:08:19.128Z,38.32
2017-04-03T09:09:19.720Z,38.41
2017-04-03T09:10:20.286Z,38.12
2017-04-03T09:11:20.865Z,38.02
2017-04-03T09:12:21.444Z,37.74
2017-04-03T09:13:22.025Z,38.02
2017-04-03T09:14:22.617Z,38.12
2017-04-03T09:15:23.196Z,37.66
2017-04-03T09:16:23.775Z,37.27
2017-04-03T09:17:24.554Z,36.99
2017-04-03T09:18:25.133Z,36.72
2017-04-03T09:19:25.711Z,36.72
2017-04-03T09:20:26.290Z,36.91
2017-04-03T09:21:26.867Z,37.20
2017-04-03T09:22:27.448Z,36.35
2017-04-03T09:23:28.025Z,36.16
2017-04-03T09:24:28.604Z,35.97
2017-04-03T09:25:29.184Z,35.89
2017-04-03T09:26:29.763Z,36.08
2017-04-03T09:27:30.358Z,36.08
2017-04-03T09:28:30.954Z,35.89
2017-04-03T09:29:31.549Z,36.08
2017-04-03T09:30:32.143Z,36.18
2017-04-03T09:31:32.722Z,35.79
2017-04-03T09:32:33.503Z,35.62
2017-04-03T09:33:34.084Z,35.52
2017-04-03T09:34:34.662Z,35.52
2017-04-03T09:35:35.241Z,35.62
2017-04-03T09:36:35.824Z,35.52
2017-04-03T09:37:36.402Z,35.33
2017-04-03T09:38:36.983Z,35.52
2017-04-03T09:39:37.562Z,35.41
2017-04-03T09:40:38.144Z,35.71
2017-04-03T09:41:38.723Z,36.29
2017-04-03T09:42:39.303Z,36.39
2017-04-03T09:43:39.884Z,35.62
2017-04-03T09:44:40.463Z,35.52
2017-04-03T09:45:41.043Z,35.71
2017-04-03T09:46:41.623Z,35.81
2017-04-03T09:47:42.405Z,35.52
2017-04-03T09:48:42.986Z,35.52
2017-04-03T09:49:43.567Z,35.35
2017-04-03T09:50:44.147Z,35.54
2017-04-03T09:51:44.727Z,35.35
2017-04-03T09:52:45.307Z,35.56
2017-04-03T09:53:45.888Z,35.27
2017-04-03T09:54:46.469Z,34.98
2017-04-03T09:55:47.049Z,34.98
2017-04-03T09:56:47.631Z,34.78
2017-04-03T09:57:48.212Z,34.69
2017-04-03T09:58:48.791Z,34.61
2017-04-03T09:59:49.372Z,34.70
2017-04-03T10:00:49.956Z,34.70
2017-04-03T10:01:50.538Z,34.42
2017-04-03T10:02:51.319Z,34.34
2017-04-03T10:03:51.901Z,34.14
2017-04-03T10:04:52.483Z,34.14
2017-04-03T10:05:53.080Z,34.05
2017-04-03T10:06:53.662Z,34.24
2017-04-03T10:07:54.276Z,34.24
2017-04-03T10:08:54.839Z,34.05
2017-04-03T10:09:55.422Z,33.78
2017-04-03T10:10:56.004Z,33.87
2017-04-03T10:11:56.585Z,33.48
2017-04-03T10:12:57.166Z,33.58
2017-04-03T10:13:57.749Z,33.58
2017-04-03T10:14:58.331Z,33.68
2017-04-03T10:15:58.913Z,33.39
2017-04-03T10:16:59.497Z,33.39
2017-04-03T10:18:00.292Z,33.48
2017-04-03T10:19:00.874Z,33.60
2017-04-03T10:20:01.497Z,33.12
2017-04-03T10:21:02.038Z,33.22
2017-04-03T10:22:02.623Z,33.12
2017-04-03T10:23:03.206Z,33.02
2017-04-03T10:24:03.786Z,33.02
2017-04-03T10:25:04.369Z,33.04
2017-04-03T10:26:04.952Z,33.02
2017-04-03T10:27:05.534Z,33.12
2017-04-03T10:28:06.319Z,33.33
2017-04-03T10:29:06.898Z,33.31
2017-04-03T10:30:07.479Z,33.22
2017-04-03T10:31:08.068Z,33.50
2017-04-03T10:32:08.656Z,33.60
2017-04-03T10:33:09.238Z,33.31
2017-04-03T10:34:09.820Z,33.40
2017-04-03T10:35:10.401Z,33.31
2017-04-03T10:36:10.982Z,33.31
2017-04-03T10:37:11.565Z,33.50
2017-04-03T10:38:12.146Z,33.52
2017-04-03T10:39:12.727Z,33.50
2017-04-03T10:40:13.323Z,33.60
2017-04-03T10:41:13.906Z,33.89
2017-04-03T10:42:14.487Z,34.08
2017-04-03T10:43:15.069Z,33.70
2017-04-03T10:44:15.651Z,33.70
2017-04-03T10:45:16.234Z,33.89
2017-04-03T10:46:16.815Z,33.98
2017-04-03T10:47:17.413Z,33.89
2017-04-03T10:48:17.994Z,33.98
2017-04-03T10:49:18.576Z,34.38
2017-04-03T10:50:19.159Z,34.45
2017-04-03T10:51:19.757Z,34.26
2017-04-03T10:52:20.354Z,34.45
2017-04-03T10:53:21.135Z,34.16
2017-04-03T10:54:21.717Z,34.45
2017-04-03T10:55:22.300Z,34.36
2017-04-03T10:56:22.881Z,34.06
2017-04-03T10:57:23.462Z,34.45
2017-04-03T10:58:24.044Z,34.74
2017-04-03T10:59:24.627Z,34.34
2017-04-03T11:00:25.208Z,35.02
2017-04-03T11:01:25.792Z,35.00
2017-04-03T11:02:26.370Z,35.38
2017-04-03T11:03:26.950Z,35.48
2017-04-03T11:04:27.530Z,35.67
2017-04-03T11:05:28.124Z,35.46
2017-04-03T11:06:28.707Z,36.33
2017-04-03T11:07:29.289Z,36.04
2017-04-03T11:08:29.870Z,36.04
2017-04-03T11:09:30.451Z,35.93
2017-04-03T11:10:31.034Z,36.21
2017-04-03T11:11:31.612Z,36.02
2017-04-03T11:12:32.192Z,36.60
2017-04-03T11:13:32.775Z,36.97
2017-04-03T11:14:33.356Z,36.97
2017-04-03T11:15:33.937Z,37.16
2017-04-03T11:16:34.518Z,37.24
2017-04-03T11:17:35.098Z,37.24
2017-04-03T11:18:35.679Z,37.34
2017-04-03T11:19:36.274Z,37.24
2017-04-03T11:20:36.855Z,37.24
2017-04-03T11:21:37.436Z,37.52
2017-04-03T11:22:38.017Z,37.12
2017-04-03T11:23:38.598Z,37.52
2017-04-03T11:24:39.178Z,37.43
2017-04-03T11:25:39.797Z,37.24
2017-04-03T11:26:40.339Z,37.04
2017-04-03T11:27:40.919Z,37.04
2017-04-03T11:28:41.701Z,36.85
2017-04-03T11:29:42.282Z,36.85
2017-04-03T11:30:42.863Z,36.76
2017-04-03T11:31:43.446Z,36.66
2017-04-03T11:32:44.025Z,36.97
2017-04-03T11:33:44.605Z,36.87
2017-04-03T11:34:45.188Z,36.68
2017-04-03T11:35:45.767Z,36.58
2017-04-03T11:36:46.348Z,36.49
2017-04-03T11:37:46.928Z,36.58
2017-04-03T11:38:47.511Z,37.06
2017-04-03T11:39:48.107Z,36.85
2017-04-03T11:40:48.688Z,36.77
2017-04-03T11:41:49.268Z,36.85
2017-04-03T11:42:49.850Z,36.85
2017-04-03T11:43:50.630Z,36.95
2017-04-03T11:44:51.217Z,36.85
2017-04-03T11:45:51.805Z,36.76
2017-04-03T11:46:52.387Z,36.76
2017-04-03T11:47:52.967Z,36.76
2017-04-03T11:48:53.549Z,36.76
2017-04-03T11:49:54.130Z,36.85
2017-04-03T11:50:54.712Z,36.85
2017-04-03T11:51:55.291Z,36.76
2017-04-03T11:52:55.871Z,37.04
2017-04-03T11:53:56.459Z,36.85
2017-04-03T11:54:57.033Z,37.24
2017-04-03T11:55:57.614Z,37.14
2017-04-03T11:56:58.195Z,37.24
2017-04-03T11:57:58.778Z,37.14
2017-04-03T11:58:59.456Z,37.24
2017-04-03T12:00:00.037Z,37.24
2017-04-03T12:01:00.618Z,37.43
2017-04-03T12:02:01.200Z,37.14
2017-04-03T12:03:01.781Z,37.32
2017-04-03T12:04:02.361Z,37.04
2017-04-03T12:05:02.939Z,37.34
2017-04-03T12:06:03.525Z,37.24
2017-04-03T12:07:04.102Z,37.04
2017-04-03T12:08:04.683Z,36.76
2017-04-03T12:09:05.265Z,36.95
2017-04-03T12:10:05.845Z,36.85
2017-04-03T12:11:06.425Z,36.76
2017-04-03T12:12:07.004Z,36.49
2017-04-03T12:13:07.586Z,36.19
2017-04-03T12:14:08.167Z,36.11
2017-04-03T12:15:08.748Z,36.31
2017-04-03T12:16:09.330Z,36.02
2017-04-03T12:17:09.910Z,35.73
2017-04-03T12:18:10.491Z,35.83
2017-04-03T12:19:11.071Z,36.23
2017-04-03T12:20:11.652Z,36.43
2017-04-03T12:21:12.233Z,35.75
2017-04-03T12:22:12.814Z,35.75
2017-04-03T12:23:13.396Z,35.65
2017-04-03T12:24:14.178Z,35.65
2017-04-03T12:25:14.757Z,35.85
2017-04-03T12:26:15.354Z,35.94
2017-04-03T12:27:15.936Z,35.56
2017-04-03T12:28:16.516Z,35.75
2017-04-03T12:29:17.098Z,35.75
2017-04-03T12:30:17.680Z,35.56
2017-04-03T12:31:18.264Z,35.75
2017-04-03T12:32:18.841Z,35.56
2017-04-03T12:33:19.422Z,35.56
2017-04-03T12:34:20.004Z,35.46
2017-04-03T12:35:20.585Z,36.31
2017-04-03T12:36:21.166Z,36.02
2017-04-03T12:37:21.763Z,36.21
2017-04-03T12:38:22.343Z,36.21
2017-04-03T12:39:23.126Z,36.11
2017-04-03T12:40:23.723Z,36.60
2017-04-03T12:41:24.318Z,36.41
2017-04-03T12:42:24.900Z,36.60
2017-04-03T12:43:25.481Z,36.51
2017-04-03T12:44:26.064Z,36.60
2017-04-03T12:45:26.644Z,36.79
2017-04-03T12:46:27.224Z,36.51
2017-04-03T12:47:27.807Z,36.51
2017-04-03T12:48:28.403Z,36.68
2017-04-03T12:49:29.186Z,36.49
2017-04-03T12:50:29.765Z,36.87
2017-04-03T12:51:30.349Z,36.68
2017-04-03T12:52:30.929Z,36.87
2017-04-03T12:53:31.511Z,36.68
2017-04-03T12:54:32.091Z,37.06
2017-04-03T12:55:32.674Z,36.77
2017-04-03T12:56:33.271Z,36.60
2017-04-03T12:57:33.851Z,36.69
2017-04-03T12:58:34.431Z,36.60
2017-04-03T12:59:35.214Z,36.21
2017-04-03T13:00:35.794Z,36.02